Time;durP1;ratioP1;P1;durP2;ratioP2;P2;SDS_P1;SDS_P2;PMS_P1;PMS_P2;Temp;Humidity;BMP_temperature;BMP_pressure;BME280_temperature;BME280_humidity;BME280_pressure;Samples;Min_cycle;Max_cycle;Signal;HPM_P1;HPM_P2
2021/08/15 00:02:00;;;;;;;6.07;2.53;;;18.70;99.90;;;;;;5040861;28;20220;-86
2021/08/15 00:04:26;;;;;;;6.63;3.20;;;18.70;99.90;;;;;;5039203;28;20210;-86
2021/08/15 00:06:53;;;;;;;5.93;3.33;;;18.60;99.90;;;;;;5037597;28;20225;-86
2021/08/15 00:09:19;;;;;;;5.60;2.70;;;18.60;99.90;;;;;;5038024;28;20589;-86
2021/08/15 00:11:47;;;;;;;3.93;2.80;;;18.60;99.90;;;;;;5037692;28;20193;-89
2021/08/15 00:14:12;;;;;;;6.40;3.27;;;18.60;99.90;;;;;;5039064;28;20220;-86
2021/08/15 00:16:38;;;;;;;9.93;3.90;;;18.60;99.90;;;;;;5038809;28;20222;-87
2021/08/15 00:19:05;;;;;;;5.27;2.97;;;18.60;99.90;;;;;;5029598;28;20714;-89
2021/08/15 00:21:32;;;;;;;6.97;3.47;;;18.50;99.90;;;;;;5028192;28;20691;-86
2021/08/15 00:23:59;;;;;;;4.73;2.43;;;18.50;99.90;;;;;;5035515;28;20178;-87
2021/08/15 00:26:24;;;;;;;12.83;3.17;;;18.50;99.90;;;;;;5019443;28;20224;-88
2021/08/15 00:28:51;;;;;;;4.20;2.37;;;18.50;99.90;;;;;;5019910;28;20304;-86
2021/08/15 00:31:17;;;;;;;7.57;3.03;;;18.40;99.90;;;;;;5050336;28;20269;-87
2021/08/15 00:33:43;;;;;;;3.83;2.70;;;18.50;99.90;;;;;;5017329;28;20776;-86
2021/08/15 00:36:08;;;;;;;4.93;2.90;;;18.50;99.90;;;;;;5035636;28;20651;-86
2021/08/15 00:38:34;;;;;;;4.90;2.50;;;18.40;99.90;;;;;;5035764;28;20570;-86
2021/08/15 00:41:01;;;;;;;7.40;2.73;;;18.40;99.90;;;;;;5034823;28;20210;-87
2021/08/15 00:43:28;;;;;;;5.40;2.20;;;18.40;99.90;;;;;;5050622;28;20225;-87
2021/08/15 00:45:54;;;;;;;5.37;2.20;;;18.40;99.90;;;;;;5018893;28;20287;-87
2021/08/15 00:48:20;;;;;;;4.33;2.53;;;18.50;99.90;;;;;;5017567;28;20585;-87
2021/08/15 00:50:45;;;;;;;4.73;2.67;;;18.40;99.90;;;;;;5035653;28;20183;-87
2021/08/15 00:53:11;;;;;;;3.80;2.17;;;18.40;99.90;;;;;;5016621;28;20809;-87
2021/08/15 00:55:37;;;;;;;4.37;2.40;;;18.40;99.90;;;;;;5034763;28;20214;-87
2021/08/15 00:58:06;;;;;;;7.47;2.13;;;18.40;99.90;;;;;;5015809;28;20214;-87
2021/08/15 01:00:33;;;;;;;4.57;2.10;;;18.40;99.90;;;;;;5015976;28;20232;-86
2021/08/15 01:02:59;;;;;;;3.93;2.00;;;18.40;99.90;;;;;;5017403;28;20645;-86
2021/08/15 01:05:26;;;;;;;9.20;2.60;;;18.40;99.90;;;;;;5019004;28;20190;-86
2021/08/15 01:07:52;;;;;;;4.77;2.10;;;18.30;99.90;;;;;;5035065;28;20214;-87
2021/08/15 01:10:18;;;;;;;5.10;2.73;;;18.40;99.90;;;;;;5035169;28;21302;-87
2021/08/15 01:12:45;;;;;;;6.90;2.50;;;18.40;99.90;;;;;;5035660;28;20964;-87
2021/08/15 01:15:11;;;;;;;6.33;3.17;;;18.40;99.90;;;;;;5036811;28;20281;-86
2021/08/15 01:17:39;;;;;;;7.93;3.33;;;18.40;99.90;;;;;;5038302;28;20213;-87
2021/08/15 01:20:07;;;;;;;7.20;2.90;;;18.40;99.90;;;;;;5040942;28;20256;-85
2021/08/15 01:22:43;;;;;;;6.70;2.93;;;18.40;99.90;;;;;;5066694;28;20700;-87
2021/08/15 01:25:10;;;;;;;12.23;3.50;;;18.40;99.90;;;;;;5055296;28;20212;-87
2021/08/15 01:27:39;;;;;;;9.53;3.47;;;18.40;99.90;;;;;;5056546;28;20552;-88
2021/08/15 01:30:10;;;;;;;14.37;4.10;;;18.40;99.90;;;;;;5057839;28;20547;-86
2021/08/15 01:32:38;;;;;;;11.13;3.67;;;18.40;99.90;;;;;;5076234;28;21175;-87
2021/08/15 01:35:05;;;;;;;7.17;3.30;;;18.40;99.90;;;;;;5041218;28;20298;-87
2021/08/15 01:37:31;;;;;;;10.63;3.63;;;18.40;99.90;;;;;;5055676;28;20209;-86
2021/08/15 01:40:02;;;;;;;7.13;2.50;;;18.40;99.90;;;;;;5040480;28;20724;-86
2021/08/15 01:42:28;;;;;;;10.13;4.13;;;18.40;99.90;;;;;;5057022;28;20584;-87
2021/08/15 01:44:54;;;;;;;9.83;3.57;;;18.40;99.90;;;;;;5040035;28;20488;-88
2021/08/15 01:47:19;;;;;;;8.33;3.17;;;18.40;99.90;;;;;;5040529;28;20761;-87
2021/08/15 01:49:45;;;;;;;6.20;3.67;;;18.40;99.90;;;;;;5040942;28;20231;-86
2021/08/15 01:52:11;;;;;;;8.17;2.90;;;18.30;99.90;;;;;;5040497;28;20992;-86
2021/08/15 01:54:37;;;;;;;14.10;4.53;;;18.30;99.90;;;;;;5041520;28;20215;-86
2021/08/15 01:57:03;;;;;;;6.73;3.27;;;18.30;99.90;;;;;;5057615;28;20366;-86
2021/08/15 01:59:28;;;;;;;5.67;2.80;;;18.40;99.90;;;;;;5056406;28;20529;-88
2021/08/15 02:01:59;;;;;;;7.37;3.00;;;18.40;99.90;;;;;;5040661;28;20239;-88
2021/08/15 02:04:25;;;;;;;7.43;2.60;;;18.30;99.90;;;;;;5039149;28;20801;-89
2021/08/15 02:06:50;;;;;;;4.27;2.60;;;18.20;99.90;;;;;;5039745;28;20263;-86
2021/08/15 02:09:16;;;;;;;2.63;1.70;;;18.20;99.90;;;;;;5039999;28;20255;-86
2021/08/15 02:11:42;;;;;;;5.23;2.40;;;17.90;99.90;;;;;;5058472;28;20573;-87
2021/08/15 02:14:08;;;;;;;1.90;1.80;;;17.70;99.90;;;;;;5040367;28;20266;-86
2021/08/15 02:16:34;;;;;;;6.00;2.00;;;17.50;99.90;;;;;;5038035;28;20732;-86
2021/08/15 02:18:59;;;;;;;3.03;1.73;;;17.30;99.90;;;;;;5038359;28;20622;-85
2021/08/15 02:21:25;;;;;;;2.77;2.07;;;17.20;99.90;;;;;;5040747;28;20689;-86
2021/08/15 02:23:51;;;;;;;4.60;2.30;;;17.10;99.90;;;;;;5040133;28;21297;-85
2021/08/15 02:26:17;;;;;;;4.13;2.57;;;17.10;99.90;;;;;;5039839;28;20573;-85
2021/08/15 02:28:42;;;;;;;4.23;2.20;;;17.10;99.90;;;;;;5039977;28;20204;-86
2021/08/15 02:31:08;;;;;;;3.97;2.13;;;17.10;99.90;;;;;;5038989;28;20885;-85
2021/08/15 02:33:34;;;;;;;3.83;2.30;;;17.10;99.90;;;;;;5038390;28;20213;-86
2021/08/15 02:35:59;;;;;;;9.53;2.87;;;17.10;99.90;;;;;;5040642;28;20231;-87
2021/08/15 02:38:25;;;;;;;4.27;1.77;;;17.10;99.90;;;;;;5038106;28;20200;-88
2021/08/15 02:40:51;;;;;;;4.83;1.90;;;17.10;99.90;;;;;;5057664;28;20213;-86
2021/08/15 02:43:18;;;;;;;2.43;2.00;;;17.00;99.90;;;;;;5056131;28;20220;-86
2021/08/15 02:45:44;;;;;;;13.50;2.57;;;17.10;99.90;;;;;;5040944;28;20319;-86
2021/08/15 02:48:10;;;;;;;2.27;1.73;;;17.10;99.90;;;;;;5073579;28;20276;-85
2021/08/15 02:50:35;;;;;;;5.10;2.13;;;17.10;99.90;;;;;;5037251;28;20259;-87
2021/08/15 02:53:02;;;;;;;3.10;2.03;;;17.20;99.90;;;;;;5040486;28;20216;-87
2021/08/15 02:55:27;;;;;;;6.07;1.70;;;17.10;99.90;;;;;;5041442;28;20213;-86
2021/08/15 02:57:53;;;;;;;3.60;2.23;;;17.20;99.90;;;;;;5038950;28;21103;-86
2021/08/15 03:00:19;;;;;;;2.47;1.53;;;17.30;99.90;;;;;;5038649;28;20989;-86
2021/08/15 03:02:45;;;;;;;2.00;1.80;;;17.20;99.90;;;;;;5041656;28;20189;-87
2021/08/15 03:05:11;;;;;;;1.87;1.70;;;17.20;99.90;;;;;;5037574;28;20296;-88
2021/08/15 03:07:37;;;;;;;4.87;1.80;;;17.20;99.90;;;;;;5039526;28;20242;-85
2021/08/15 03:10:04;;;;;;;1.80;1.70;;;17.30;99.90;;;;;;5039523;28;20228;-86
2021/08/15 03:12:30;;;;;;;2.77;1.80;;;17.20;99.90;;;;;;5058068;28;20700;-86
2021/08/15 03:14:56;;;;;;;2.20;2.00;;;17.20;99.90;;;;;;5043034;28;20222;-86
2021/08/15 03:17:24;;;;;;;2.30;2.00;;;17.30;99.90;;;;;;5044028;28;20192;-86
2021/08/15 03:19:50;;;;;;;4.17;1.40;;;17.30;99.90;;;;;;5060405;28;20304;-86
2021/08/15 03:22:15;;;;;;;2.03;1.70;;;17.30;99.90;;;;;;5044377;28;20299;-86
2021/08/15 03:24:41;;;;;;;1.70;1.50;;;17.40;99.90;;;;;;5062098;28;20213;-86
2021/08/15 03:27:07;;;;;;;3.10;1.70;;;17.30;99.90;;;;;;5044433;28;20348;-87
2021/08/15 03:29:33;;;;;;;5.77;1.73;;;17.30;99.90;;;;;;5061314;28;20926;-86
2021/08/15 03:31:59;;;;;;;2.97;1.53;;;17.30;99.90;;;;;;5044582;28;20292;-86
2021/08/15 03:34:25;;;;;;;2.37;1.50;;;17.40;99.90;;;;;;5058788;28;20704;-86
2021/08/15 03:36:51;;;;;;;4.40;1.60;;;17.40;99.90;;;;;;5044684;28;20217;-86
2021/08/15 03:39:17;;;;;;;5.73;2.80;;;17.40;99.90;;;;;;5059378;28;20212;-86
2021/08/15 03:41:43;;;;;;;1.63;1.20;;;17.40;99.90;;;;;;5058698;28;20177;-88
2021/08/15 03:44:09;;;;;;;2.47;1.43;;;17.40;99.90;;;;;;5061185;28;20213;-86
2021/08/15 03:46:36;;;;;;;2.20;2.10;;;17.30;99.90;;;;;;5058004;28;20208;-86
2021/08/15 03:49:02;;;;;;;2.97;1.13;;;17.30;99.90;;;;;;5058444;28;20695;-86
2021/08/15 03:51:28;;;;;;;6.47;2.10;;;17.40;99.90;;;;;;5042088;28;20246;-86
2021/08/15 03:53:54;;;;;;;5.83;1.87;;;17.30;99.90;;;;;;5044508;28;20623;-86
2021/08/15 03:56:19;;;;;;;2.53;1.60;;;17.30;99.90;;;;;;5028231;28;20245;-85
2021/08/15 03:58:45;;;;;;;1.17;1.00;;;17.20;99.90;;;;;;5041607;28;20401;-86
2021/08/15 04:01:11;;;;;;;4.00;1.50;;;17.30;99.90;;;;;;5044412;28;20257;-86
2021/08/15 04:03:37;;;;;;;2.90;1.70;;;17.30;99.90;;;;;;5043799;28;20213;-88
2021/08/15 04:06:08;;;;;;;4.63;1.53;;;17.40;99.90;;;;;;5043705;28;20223;-85
2021/08/15 04:08:34;;;;;;;2.70;1.70;;;17.40;99.90;;;;;;5043848;28;20180;-86
2021/08/15 04:11:00;;;;;;;3.60;1.57;;;17.40;99.90;;;;;;5042654;28;20676;-86
2021/08/15 04:13:25;;;;;;;1.50;1.40;;;17.30;99.90;;;;;;5013842;28;20225;-88
2021/08/15 04:15:51;;;;;;;5.87;1.73;;;17.30;99.90;;;;;;5042942;28;20246;-86
2021/08/15 04:18:17;;;;;;;3.00;1.90;;;17.40;99.90;;;;;;5043043;28;20314;-88
2021/08/15 04:20:43;;;;;;;5.37;1.90;;;17.40;99.90;;;;;;5043182;28;20666;-86
2021/08/15 04:23:09;;;;;;;2.10;1.90;;;17.50;99.90;;;;;;5058477;28;20212;-87
2021/08/15 04:25:35;;;;;;;2.30;1.70;;;17.50;99.90;;;;;;5057829;28;20827;-86
2021/08/15 04:28:01;;;;;;;3.03;1.50;;;17.50;99.90;;;;;;5042542;28;20213;-86
2021/08/15 04:30:27;;;;;;;20.00;2.60;;;17.40;99.90;;;;;;5042632;28;20220;-86
2021/08/15 04:32:52;;;;;;;2.73;2.27;;;17.40;99.90;;;;;;5041789;28;20267;-88
2021/08/15 04:35:18;;;;;;;4.37;1.47;;;17.20;99.90;;;;;;5040686;28;20201;-86
2021/08/15 04:37:44;;;;;;;6.73;1.83;;;17.10;99.90;;;;;;5041210;28;20914;-85
2021/08/15 04:40:10;;;;;;;3.30;1.83;;;17.10;99.90;;;;;;5043395;28;20200;-86
2021/08/15 04:42:36;;;;;;;5.73;1.83;;;17.10;99.90;;;;;;5042892;28;20757;-86
2021/08/15 04:45:02;;;;;;;3.83;1.97;;;17.10;99.90;;;;;;5042601;28;20189;-87
2021/08/15 04:47:28;;;;;;;5.37;1.77;;;17.10;99.90;;;;;;5040380;28;20205;-87
2021/08/15 04:49:54;;;;;;;1.90;1.70;;;17.10;99.90;;;;;;5040896;28;20225;-85
2021/08/15 04:52:20;;;;;;;2.37;1.97;;;17.10;99.90;;;;;;5058023;28;20300;-85
2021/08/15 04:54:46;;;;;;;4.80;2.70;;;17.00;99.90;;;;;;5041538;28;20216;-86
2021/08/15 04:57:11;;;;;;;4.53;2.07;;;17.00;99.90;;;;;;5043469;28;20192;-87
2021/08/15 04:59:37;;;;;;;3.27;2.90;;;17.00;99.90;;;;;;5042180;28;20181;-86
2021/08/15 05:02:03;;;;;;;3.80;2.57;;;17.00;99.90;;;;;;5039531;28;20221;-88
2021/08/15 05:04:29;;;;;;;3.90;2.20;;;17.00;99.90;;;;;;5043730;28;20205;-87
2021/08/15 05:06:55;;;;;;;5.63;2.33;;;16.90;99.90;;;;;;5040311;28;20248;-87
2021/08/15 05:09:21;;;;;;;6.53;2.07;;;17.00;99.90;;;;;;5041220;28;21179;-86
2021/08/15 05:11:48;;;;;;;3.50;2.40;;;17.10;99.90;;;;;;5058531;28;20676;-86
2021/08/15 05:14:14;;;;;;;3.53;2.43;;;17.30;99.90;;;;;;5042629;28;20229;-88
2021/08/15 05:16:39;;;;;;;4.07;2.13;;;17.30;99.90;;;;;;5042171;28;20232;-86
2021/08/15 05:19:05;;;;;;;5.80;2.50;;;17.40;99.90;;;;;;5039112;28;20221;-86
2021/08/15 05:21:31;;;;;;;3.47;2.10;;;17.40;99.90;;;;;;5025192;28;20238;-86
2021/08/15 05:23:58;;;;;;;3.13;2.00;;;17.60;99.90;;;;;;5041415;28;20784;-85
2021/08/15 05:26:24;;;;;;;5.47;2.40;;;17.70;99.90;;;;;;5038499;28;20237;-85
2021/08/15 05:28:50;;;;;;;3.70;2.20;;;17.70;99.90;;;;;;5040690;28;20247;-86
2021/08/15 05:31:15;;;;;;;5.17;2.30;;;17.80;99.90;;;;;;5040065;28;20208;-86
2021/08/15 05:33:41;;;;;;;7.90;3.47;;;17.80;99.90;;;;;;5058771;28;20566;-88
2021/08/15 05:36:07;;;;;;;3.17;2.27;;;17.90;99.90;;;;;;5057890;28;20275;-86
2021/08/15 05:38:33;;;;;;;2.83;2.00;;;18.10;99.90;;;;;;5077521;28;20176;-85
2021/08/15 05:40:59;;;;;;;4.53;2.23;;;18.70;99.90;;;;;;5041544;28;20239;-86
2021/08/15 05:43:24;;;;;;;2.67;1.77;;;19.00;99.90;;;;;;5042983;28;20221;-85
2021/08/15 05:45:50;;;;;;;6.97;2.27;;;19.50;99.90;;;;;;5040606;28;20260;-85
2021/08/15 05:48:17;;;;;;;5.10;2.47;;;19.60;99.90;;;;;;5053885;28;20220;-86
2021/08/15 05:50:43;;;;;;;3.10;2.33;;;19.40;99.90;;;;;;5039684;28;20199;-85
2021/08/15 05:53:09;;;;;;;2.37;1.70;;;19.20;99.90;;;;;;5040614;28;20213;-88
2021/08/15 05:55:34;;;;;;;6.57;2.37;;;19.30;99.90;;;;;;5039566;28;20216;-86
2021/08/15 05:58:00;;;;;;;10.27;2.60;;;19.20;99.90;;;;;;5032293;28;20212;-86
2021/08/15 06:00:26;;;;;;;3.93;2.90;;;19.80;99.90;;;;;;5039028;28;20223;-85
2021/08/15 06:02:51;;;;;;;4.47;2.10;;;20.80;99.90;;;;;;5037441;28;20968;-85
2021/08/15 06:05:17;;;;;;;4.30;2.27;;;22.40;99.90;;;;;;5042085;28;20299;-87
2021/08/15 06:07:43;;;;;;;4.60;2.53;;;24.60;99.90;;;;;;5040067;28;20696;-86
2021/08/15 06:10:10;;;;;;;5.40;2.27;;;26.40;99.90;;;;;;5057199;28;20218;-86
2021/08/15 06:12:36;;;;;;;4.10;2.27;;;27.60;99.90;;;;;;5041479;28;20300;-86
2021/08/15 06:15:04;;;;;;;2.57;2.07;;;29.10;99.90;;;;;;5054676;28;21711;-86
2021/08/15 06:17:30;;;;;;;4.30;1.88;;;29.30;99.90;;;;;;5031585;28;20281;-87
2021/08/15 06:19:56;;;;;;;2.72;1.98;;;28.80;99.90;;;;;;5056023;28;20311;-85
2021/08/15 06:22:22;;;;;;;3.67;2.10;;;28.00;99.90;;;;;;5058468;28;20205;-89
2021/08/15 06:24:47;;;;;;;2.78;1.95;;;27.70;99.90;;;;;;5040742;28;20292;-86
2021/08/15 06:27:13;;;;;;;4.00;1.88;;;27.80;99.90;;;;;;5039911;28;20292;-86
2021/08/15 06:29:39;;;;;;;5.80;1.98;;;26.90;99.90;;;;;;5040037;28;20203;-87
2021/08/15 06:32:05;;;;;;;2.53;1.42;;;26.80;99.90;;;;;;5040501;28;20262;-87
2021/08/15 06:34:31;;;;;;;4.45;1.77;;;26.10;99.90;;;;;;5037592;28;20212;-86
2021/08/15 06:36:56;;;;;;;3.47;2.05;;;25.90;99.90;;;;;;5054263;28;20216;-89
2021/08/15 06:39:22;;;;;;;3.22;1.70;;;25.40;99.90;;;;;;5032473;28;20688;-88
2021/08/15 06:41:48;;;;;;;6.45;2.10;;;25.90;99.90;;;;;;5040589;28;20196;-87
2021/08/15 06:44:14;;;;;;;9.73;1.83;;;27.60;99.90;;;;;;5039060;28;20433;-87
2021/08/15 06:46:40;;;;;;;2.00;1.55;;;27.60;99.90;;;;;;5043908;28;20301;-87
2021/08/15 06:49:06;;;;;;;2.75;1.60;;;26.70;99.90;;;;;;5042819;28;20724;-88
2021/08/15 06:51:31;;;;;;;3.45;1.63;;;25.90;99.90;;;;;;5042256;28;20335;-88
2021/08/15 06:53:58;;;;;;;4.90;1.70;;;25.40;99.90;;;;;;5046592;28;20724;-87
2021/08/15 06:56:23;;;;;;;3.72;2.17;;;25.70;99.90;;;;;;5043094;28;20189;-87
2021/08/15 06:58:50;;;;;;;3.90;1.70;;;25.30;99.90;;;;;;5043362;28;20227;-88
2021/08/15 07:01:16;;;;;;;3.08;2.00;;;24.80;99.90;;;;;;5043196;28;20213;-87
2021/08/15 07:03:42;;;;;;;3.35;1.73;;;23.70;99.90;;;;;;5044233;28;20555;-89
2021/08/15 07:06:08;;;;;;;5.05;1.90;;;23.40;99.90;;;;;;5041484;28;20213;-88
2021/08/15 07:08:34;;;;;;;4.45;2.60;;;23.30;99.90;;;;;;5058403;28;20193;-88
2021/08/15 07:10:59;;;;;;;5.85;2.47;;;23.10;99.90;;;;;;5060020;28;20753;-87
2021/08/15 07:13:25;;;;;;;7.78;2.70;;;22.60;99.90;;;;;;5040223;28;20263;-87
2021/08/15 07:15:52;;;;;;;4.30;2.38;;;22.20;99.90;;;;;;5042054;28;20764;-87
2021/08/15 07:18:19;;;;;;;3.03;2.35;;;22.20;99.90;;;;;;5059346;28;20228;-89
2021/08/15 07:20:46;;;;;;;3.60;1.90;;;23.30;99.90;;;;;;5059200;28;20191;-87
2021/08/15 07:23:13;;;;;;;5.90;2.53;;;24.70;99.90;;;;;;5042177;28;20285;-87
2021/08/15 07:25:39;;;;;;;5.57;2.20;;;26.10;99.90;;;;;;5057117;28;20856;-87
2021/08/15 07:28:06;;;;;;;5.18;2.70;;;26.80;99.90;;;;;;5059605;28;20208;-86
2021/08/15 07:30:33;;;;;;;6.00;2.95;;;25.20;99.90;;;;;;5040612;28;20665;-87
2021/08/15 07:33:04;;;;;;;3.33;2.65;;;24.30;99.90;;;;;;5043077;28;20686;-87
2021/08/15 07:35:32;;;;;;;4.70;2.42;;;24.40;99.90;;;;;;5059831;28;20709;-88
2021/08/15 07:37:58;;;;;;;3.97;2.30;;;24.50;99.90;;;;;;5056713;28;20221;-87
2021/08/15 07:40:25;;;;;;;6.85;2.72;;;23.90;99.90;;;;;;5058284;28;20231;-87
2021/08/15 07:42:51;;;;;;;5.38;3.28;;;23.20;99.90;;;;;;5058168;28;20213;-88
2021/08/15 07:45:18;;;;;;;4.60;2.70;;;23.40;99.90;;;;;;5059673;28;20217;-88
2021/08/15 07:47:44;;;;;;;4.65;2.75;;;22.60;99.90;;;;;;5042518;28;20306;-86
2021/08/15 07:50:10;;;;;;;5.72;3.22;;;22.50;99.90;;;;;;5040708;28;20213;-86
2021/08/15 07:52:36;;;;;;;4.47;2.75;;;24.10;99.90;;;;;;5044045;28;20263;-87
2021/08/15 07:55:03;;;;;;;10.93;2.80;;;25.40;99.90;;;;;;5044704;28;20213;-86
2021/08/15 07:57:30;;;;;;;6.35;2.63;;;26.30;99.90;;;;;;5042730;28;20347;-86
2021/08/15 07:59:57;;;;;;;6.55;3.20;;;26.50;99.90;;;;;;5041290;28;20199;-87
2021/08/15 08:02:22;;;;;;;7.43;3.63;;;26.90;99.90;;;;;;5060254;28;20230;-86
2021/08/15 08:04:50;;;;;;;8.40;3.08;;;26.80;99.90;;;;;;5041915;28;20205;-86
2021/08/15 08:07:19;;;;;;;7.93;3.63;;;26.60;99.90;;;;;;5062744;28;20237;-87
2021/08/15 08:09:46;;;;;;;8.13;3.78;;;27.50;99.90;;;;;;5044184;28;20901;-86
2021/08/15 08:12:12;;;;;;;6.65;3.40;;;28.40;99.90;;;;;;5049727;28;20337;-87
2021/08/15 08:14:38;;;;;;;6.50;3.20;;;29.80;99.90;;;;;;5059349;28;20664;-87
2021/08/15 08:17:04;;;;;;;6.88;2.88;;;31.70;99.90;;;;;;5037833;28;20208;-86
2021/08/15 08:19:30;;;;;;;4.57;3.13;;;33.20;99.90;;;;;;5076993;28;20225;-86
2021/08/15 08:21:56;;;;;;;5.63;3.05;;;34.20;99.90;;;;;;5076162;28;20230;-86
2021/08/15 08:24:21;;;;;;;7.93;3.13;;;34.20;99.90;;;;;;5059720;28;20193;-88
2021/08/15 08:26:47;;;;;;;6.22;2.70;;;34.50;99.90;;;;;;5018796;28;20256;-87
2021/08/15 08:29:13;;;;;;;7.30;2.95;;;34.50;99.90;;;;;;5048260;28;20873;-87
2021/08/15 08:31:38;;;;;;;7.07;2.70;;;32.80;99.90;;;;;;5041663;28;20642;-87
2021/08/15 08:34:04;;;;;;;4.75;3.22;;;33.00;99.90;;;;;;5041668;28;20220;-86
2021/08/15 08:36:30;;;;;;;5.30;2.88;;;33.20;99.90;;;;;;5038607;28;20208;-86
2021/08/15 08:38:55;;;;;;;6.72;2.40;;;32.50;99.90;;;;;;5039532;28;20318;-87
2021/08/15 08:41:21;;;;;;;9.25;2.92;;;33.30;99.90;;;;;;5023037;28;20536;-87
2021/08/15 08:43:48;;;;;;;6.55;2.78;;;31.30;99.90;;;;;;5041511;28;20228;-87
2021/08/15 08:46:18;;;;;;;12.57;2.55;;;30.20;99.90;;;;;;5042244;28;20628;-88
2021/08/15 08:48:44;;;;;;;4.70;2.70;;;28.60;99.90;;;;;;5057560;28;20208;-87
2021/08/15 08:51:10;;;;;;;5.07;2.72;;;28.60;99.90;;;;;;5056782;28;20580;-87
2021/08/15 08:53:38;;;;;;;4.20;2.50;;;28.30;99.90;;;;;;5041827;28;20228;-88
2021/08/15 08:56:04;;;;;;;10.55;2.92;;;28.00;99.90;;;;;;5057933;28;20624;-86
2021/08/15 08:58:30;;;;;;;4.63;2.83;;;29.20;99.90;;;;;;5040067;28;20224;-88
2021/08/15 09:00:56;;;;;;;7.18;2.17;;;29.80;99.90;;;;;;5046066;28;20213;-87
2021/08/15 09:03:21;;;;;;;12.52;3.17;;;30.40;99.90;;;;;;5042748;28;20232;-86
2021/08/15 09:05:52;;;;;;;5.65;2.55;;;30.00;99.90;;;;;;5042925;28;20216;-87
2021/08/15 09:08:29;;;;;;;6.75;2.63;;;31.00;99.90;;;;;;5042599;28;20235;-87
2021/08/15 09:11:14;;;;;;;7.85;3.15;;;32.20;99.90;;;;;;5058354;28;20633;-89
2021/08/15 09:13:41;;;;;;;10.65;2.83;;;31.80;99.90;;;;;;5057008;28;20204;-87
2021/08/15 09:16:06;;;;;;;7.03;2.90;;;31.40;99.90;;;;;;5055613;28;20318;-88
2021/08/15 09:18:33;;;;;;;6.53;2.67;;;30.90;99.90;;;;;;5045976;28;20261;-87
2021/08/15 09:20:59;;;;;;;6.30;2.97;;;31.40;99.90;;;;;;5016090;28;20291;-87
2021/08/15 09:23:29;;;;;;;4.97;2.90;;;31.40;99.90;;;;;;5018388;28;20191;-86
2021/08/15 09:26:18;;;;;;;6.63;2.85;;;31.70;99.90;;;;;;5032918;28;20183;-87
2021/08/15 09:28:47;;;;;;;6.20;2.83;;;32.50;99.90;;;;;;5032738;28;20206;-86
2021/08/15 09:31:24;;;;;;;4.38;2.50;;;32.90;99.90;;;;;;5037190;28;20210;-85
2021/08/15 09:33:54;;;;;;;5.80;2.65;;;33.10;99.90;;;;;;5034491;28;20701;-87
2021/08/15 09:36:31;;;;;;;6.93;2.75;;;32.90;99.90;;;;;;5036333;28;20694;-86
2021/08/15 09:39:02;;;;;;;9.25;3.65;;;33.50;99.90;;;;;;5019346;28;20970;-86
2021/08/15 09:41:31;;;;;;;4.75;2.97;;;32.20;99.90;;;;;;5035780;28;20232;-87
2021/08/15 09:44:23;;;;;;;10.60;3.50;;;30.00;99.90;;;;;;5037387;28;20201;-86
2021/08/15 09:47:09;;;;;;;5.07;3.00;;;29.20;99.90;;;;;;5034693;28;20280;-86
2021/08/15 09:49:47;;;;;;;9.50;3.25;;;28.60;99.90;;;;;;5034167;28;20206;-86
2021/08/15 09:52:19;;;;;;;6.85;2.70;;;27.90;99.90;;;;;;5032999;28;20241;-87
2021/08/15 09:54:56;;;;;;;4.30;2.90;;;28.20;99.90;;;;;;5033795;28;20311;-88
2021/08/15 09:57:33;;;;;;;7.78;2.75;;;27.90;99.90;;;;;;5032915;28;20228;-88
2021/08/15 10:00:00;;;;;;;7.22;2.65;;;27.20;99.90;;;;;;5034255;28;20236;-87
2021/08/15 10:02:27;;;;;;;10.02;3.00;;;27.60;99.90;;;;;;5034000;28;20211;-88
2021/08/15 10:04:56;;;;;;;5.05;2.80;;;27.30;99.90;;;;;;5033236;28;20205;-88
2021/08/15 10:07:24;;;;;;;7.68;2.80;;;28.30;99.90;;;;;;5034700;28;20222;-87
2021/08/15 10:09:51;;;;;;;7.93;2.40;;;29.30;99.90;;;;;;5018133;28;20197;-86
2021/08/15 10:12:16;;;;;;;6.95;2.80;;;29.50;99.90;;;;;;5019273;28;20268;-89
2021/08/15 10:14:42;;;;;;;3.72;2.63;;;30.00;99.90;;;;;;5023306;28;21352;-85
2021/08/15 10:17:15;;;;;;;6.18;3.20;;;30.20;99.90;;;;;;5018280;28;20228;-87
2021/08/15 10:20:04;;;;;;;6.18;2.70;;;30.80;99.90;;;;;;5074030;28;20705;-87
2021/08/15 10:22:33;;;;;;;5.72;2.80;;;29.30;99.90;;;;;;5074855;28;20224;-89
2021/08/15 10:25:05;;;;;;;5.72;2.33;;;27.90;99.90;;;;;;5074019;28;20205;-87
2021/08/15 10:27:42;;;;;;;5.80;2.70;;;27.70;99.90;;;;;;5074786;28;20220;-88
2021/08/15 10:30:17;;;;;;;6.65;2.22;;;27.50;99.90;;;;;;5075808;28;20288;-85
2021/08/15 10:32:54;;;;;;;5.07;1.95;;;27.90;99.90;;;;;;5074782;28;20565;-88
2021/08/15 10:35:22;;;;;;;6.38;2.58;;;29.00;99.90;;;;;;5057335;28;21369;-86
2021/08/15 10:37:55;;;;;;;5.05;2.55;;;29.10;99.90;;;;;;5055798;28;20203;-85
2021/08/15 10:40:43;;;;;;;7.47;2.50;;;29.80;99.90;;;;;;5070224;28;20571;-86
2021/08/15 10:43:31;;;;;;;6.07;2.35;;;30.90;99.90;;;;;;5055212;28;20266;-86
2021/08/15 10:46:10;;;;;;;5.43;2.42;;;30.80;99.90;;;;;;5014535;28;20216;-85
2021/08/15 10:48:59;;;;;;;6.75;2.30;;;29.00;99.90;;;;;;5053448;28;20286;-85
2021/08/15 10:51:47;;;;;;;2.88;2.17;;;29.10;99.90;;;;;;5041164;28;20262;-89
2021/08/15 10:54:29;;;;;;;2.97;2.15;;;29.30;99.90;;;;;;5065294;28;20217;-86
2021/08/15 10:56:58;;;;;;;4.55;2.00;;;30.00;99.90;;;;;;5057057;28;20212;-87
2021/08/15 10:59:41;;;;;;;4.20;2.33;;;29.50;99.90;;;;;;5055552;28;20586;-88
2021/08/15 11:02:08;;;;;;;6.30;2.55;;;28.90;99.90;;;;;;5057908;28;20186;-87
2021/08/15 11:04:34;;;;;;;4.53;2.10;;;30.00;99.90;;;;;;5037147;28;20266;-88
2021/08/15 11:07:01;;;;;;;4.60;2.33;;;30.00;99.90;;;;;;5040675;28;20220;-89
2021/08/15 11:09:54;;;;;;;6.07;2.33;;;28.70;99.90;;;;;;5056189;28;20580;-87
2021/08/15 11:12:21;;;;;;;6.95;2.40;;;28.50;99.90;;;;;;5067074;28;20659;-87
2021/08/15 11:14:58;;;;;;;4.45;2.25;;;28.90;99.90;;;;;;5056703;28;20205;-88
2021/08/15 11:17:25;;;;;;;3.13;2.40;;;28.30;99.90;;;;;;5057478;28;20204;-88
2021/08/15 11:19:51;;;;;;;7.47;2.60;;;28.00;99.90;;;;;;5075455;28;20293;-87
2021/08/15 11:22:25;;;;;;;3.05;2.28;;;28.60;99.90;;;;;;5058520;28;20228;-88
2021/08/15 11:24:56;;;;;;;6.88;3.20;;;28.00;99.90;;;;;;5057921;28;20510;-87
2021/08/15 11:27:28;;;;;;;5.55;2.70;;;28.10;99.90;;;;;;5054923;28;20350;-86
2021/08/15 11:29:55;;;;;;;6.78;2.75;;;28.10;99.90;;;;;;5057096;28;20228;-86
2021/08/15 11:32:32;;;;;;;7.43;2.42;;;28.20;99.90;;;;;;5040680;28;20189;-86
2021/08/15 11:35:15;;;;;;;9.88;2.60;;;27.80;99.90;;;;;;5077475;28;20193;-86
2021/08/15 11:37:48;;;;;;;12.20;3.63;;;27.50;99.90;;;;;;5041003;28;20213;-89
2021/08/15 11:40:16;;;;;;;8.15;3.40;;;28.40;99.90;;;;;;5074747;28;20756;-87
2021/08/15 11:42:43;;;;;;;6.55;3.00;;;28.30;99.90;;;;;;5055853;28;20651;-88
2021/08/15 11:45:10;;;;;;;6.97;3.25;;;27.60;99.90;;;;;;5042602;28;20205;-87
2021/08/15 11:47:40;;;;;;;8.10;3.03;;;26.90;99.90;;;;;;5057606;28;20228;-86
2021/08/15 11:50:19;;;;;;;7.47;3.33;;;26.50;99.90;;;;;;5042491;28;20200;-86
2021/08/15 11:52:47;;;;;;;8.13;3.70;;;26.30;99.90;;;;;;5060980;28;20259;-85
2021/08/15 11:55:21;;;;;;;7.15;3.08;;;26.30;99.90;;;;;;5045004;28;20282;-86
2021/08/15 11:57:59;;;;;;;6.53;3.58;;;26.30;99.90;;;;;;5068470;28;20216;-86
2021/08/15 12:00:33;;;;;;;7.25;3.22;;;26.20;99.90;;;;;;5057379;28;20297;-85
2021/08/15 12:03:08;;;;;;;5.22;3.35;;;26.10;99.90;;;;;;5075605;28;20719;-86
2021/08/15 12:05:46;;;;;;;8.95;3.30;;;26.30;99.90;;;;;;5043102;28;20795;-86
2021/08/15 12:08:20;;;;;;;6.32;3.50;;;26.40;99.90;;;;;;5076725;28;20220;-86
2021/08/15 12:10:50;;;;;;;9.45;3.33;;;27.10;99.90;;;;;;5060051;28;20188;-86
2021/08/15 12:13:32;;;;;;;8.00;3.45;;;27.30;99.90;;;;;;5042051;28;20213;-87
2021/08/15 12:15:57;;;;;;;7.28;3.47;;;27.10;99.90;;;;;;5061056;28;20203;-86
2021/08/15 12:18:40;;;;;;;4.55;2.42;;;26.80;99.90;;;;;;5057933;28;20315;-86
2021/08/15 12:21:17;;;;;;;7.80;3.50;;;26.60;99.90;;;;;;5058264;28;20213;-88
2021/08/15 12:24:04;;;;;;;7.50;3.30;;;26.70;99.90;;;;;;5059701;28;20213;-85
2021/08/15 12:26:41;;;;;;;9.60;3.40;;;26.40;99.90;;;;;;5067395;28;20221;-87
2021/08/15 12:29:23;;;;;;;5.25;2.92;;;26.10;99.90;;;;;;5078508;28;20644;-87
2021/08/15 12:32:05;;;;;;;10.50;3.70;;;25.90;99.90;;;;;;5067505;28;20215;-86
2021/08/15 12:34:33;;;;;;;7.50;3.20;;;25.80;99.90;;;;;;5058745;28;20580;-86
2021/08/15 12:36:59;;;;;;;9.52;3.70;;;25.60;99.90;;;;;;5050254;28;20235;-86
2021/08/15 12:39:34;;;;;;;8.85;3.15;;;25.60;99.90;;;;;;5042502;28;20220;-86
2021/08/15 12:42:01;;;;;;;8.13;3.97;;;25.40;99.90;;;;;;5055578;28;20205;-86
2021/08/15 12:44:32;;;;;;;4.85;3.15;;;25.50;99.90;;;;;;5040223;28;20199;-87
2021/08/15 12:47:04;;;;;;;4.53;2.53;;;25.70;99.90;;;;;;5058870;28;20215;-87
2021/08/15 12:49:46;;;;;;;10.70;4.00;;;26.30;99.90;;;;;;5059670;28;20248;-84
2021/08/15 12:52:25;;;;;;;7.47;3.08;;;26.10;99.90;;;;;;5057255;28;20259;-85